createdAt,value
2024-04-23T00:00:35.018Z,99.90
2024-04-23T00:05:38.785Z,99.90
2024-04-23T00:10:43.874Z,99.90
2024-04-23T00:15:51.239Z,99.90
2024-04-23T00:20:57.142Z,99.90
2024-04-23T00:26:01.169Z,99.90
2024-04-23T00:31:08.868Z,99.90
2024-04-23T00:36:12.736Z,99.90
2024-04-23T00:41:17.687Z,99.90
2024-04-23T00:46:27.913Z,99.90
2024-04-23T00:51:32.016Z,99.90
2024-04-23T00:56:37.043Z,99.90
2024-04-23T01:01:46.396Z,99.90
2024-04-23T01:06:51.622Z,99.90
2024-04-23T01:11:55.733Z,99.90
2024-04-23T01:17:05.804Z,99.90
2024-04-23T01:22:14.695Z,99.90
2024-04-23T01:27:22.382Z,99.90
2024-04-23T01:32:29.276Z,99.90
2024-04-23T01:37:35.558Z,99.90
2024-04-23T01:42:43.026Z,99.90
2024-04-23T01:47:47.799Z,99.90
2024-04-23T01:52:51.695Z,99.90
2024-04-23T01:57:58.448Z,99.90
2024-04-23T02:03:02.942Z,99.90
2024-04-23T02:08:07.684Z,99.90
2024-04-23T02:13:14.314Z,99.90
2024-04-23T02:18:18.394Z,99.90
2024-04-23T02:23:22.975Z,99.90
2024-04-23T02:28:29.919Z,99.90
2024-04-23T02:33:34.413Z,99.90
2024-04-23T02:38:38.464Z,99.90
2024-04-23T02:43:47.326Z,99.90
2024-04-23T02:48:51.435Z,99.90
2024-04-23T02:53:56.858Z,99.90
2024-04-23T02:59:03.612Z,99.90
2024-04-23T03:04:07.578Z,99.90
2024-04-23T03:09:12.039Z,99.90
2024-04-23T03:14:18.782Z,99.90
2024-04-23T03:19:24.550Z,99.90
2024-04-23T03:24:28.803Z,99.90
2024-04-23T03:29:35.705Z,99.90
2024-04-23T03:34:39.787Z,99.90
2024-04-23T03:39:44.086Z,99.90
2024-04-23T03:44:51.832Z,99.90
2024-04-23T03:49:57.657Z,99.90
2024-04-23T03:55:01.455Z,99.90
2024-04-23T04:00:09.377Z,99.90
2024-04-23T04:05:31.833Z,99.90
2024-04-23T04:10:35.885Z,99.90
2024-04-23T04:15:42.965Z,99.90
2024-04-23T04:20:47.623Z,99.90
2024-04-23T04:25:51.831Z,99.90
2024-04-23T04:30:58.898Z,99.90
2024-04-23T04:36:02.667Z,99.90
2024-04-23T04:41:07.544Z,99.90
2024-04-23T04:46:16.188Z,99.90
2024-04-23T04:51:21.525Z,99.90
2024-04-23T04:56:28.052Z,99.90
2024-04-23T05:01:35.854Z,99.90
2024-04-23T05:06:39.639Z,99.90
2024-04-23T05:11:46.469Z,99.90
2024-04-23T05:16:53.416Z,99.90
2024-04-23T05:21:57.766Z,99.90
2024-04-23T05:27:02.740Z,99.90
2024-04-23T05:32:28.009Z,99.90
2024-04-23T05:37:31.858Z,99.90
2024-04-23T05:42:35.756Z,99.90
2024-04-23T05:48:19.229Z,99.90
2024-04-23T05:54:20.403Z,99.90
2024-04-23T05:59:46.267Z,99.90
2024-04-23T06:04:52.162Z,99.90
2024-04-23T06:10:09.824Z,99.90
2024-04-23T06:15:17.536Z,99.90
2024-04-23T06:20:22.173Z,99.90
2024-04-23T06:25:27.015Z,97.40
2024-04-23T06:30:34.600Z,94.00
2024-04-23T06:35:41.832Z,90.30
2024-04-23T06:40:52.167Z,84.20
2024-04-23T06:45:59.833Z,81.50
2024-04-23T06:51:05.384Z,76.40
2024-04-23T06:56:10.762Z,83.70
2024-04-23T07:01:17.829Z,74.90
2024-04-23T07:06:21.904Z,75.50
2024-04-23T07:11:26.388Z,67.60
2024-04-23T07:16:32.983Z,71.70
2024-04-23T07:21:36.702Z,69.20
2024-04-23T07:26:40.941Z,64.00
2024-04-23T07:31:49.854Z,66.50
2024-04-23T07:36:54.875Z,66.00
2024-04-23T07:42:01.167Z,60.20
2024-04-23T07:47:08.174Z,55.60
2024-04-23T07:52:12.134Z,54.40
2024-04-23T07:57:16.198Z,56.60
2024-04-23T08:02:22.910Z,51.50
2024-04-23T08:07:29.141Z,53.40
2024-04-23T08:12:33.023Z,54.10
2024-04-23T08:17:39.832Z,53.20
2024-04-23T08:22:43.858Z,54.10
2024-04-23T08:27:47.758Z,51.00
2024-04-23T08:32:56.133Z,50.20
2024-04-23T08:38:00.388Z,52.40
2024-04-23T08:43:15.312Z,48.40
2024-04-23T08:48:22.103Z,50.00
2024-04-23T08:53:28.996Z,47.90
2024-04-23T08:58:35.331Z,48.50
2024-04-23T09:03:45.784Z,47.20
2024-04-23T09:08:50.580Z,48.20
2024-04-23T09:13:57.728Z,48.40
2024-04-23T09:19:04.634Z,50.40
2024-04-23T09:24:09.907Z,51.30
2024-04-23T09:29:13.930Z,51.90
2024-04-23T09:34:32.402Z,47.10
2024-04-23T09:39:44.340Z,48.90
2024-04-23T09:44:51.878Z,50.80
2024-04-23T09:49:59.129Z,46.30
2024-04-23T09:55:05.293Z,49.80
2024-04-23T10:00:12.198Z,48.90
2024-04-23T10:05:27.174Z,46.40
2024-04-23T10:10:38.208Z,45.70
2024-04-23T10:15:52.211Z,45.60
2024-04-23T10:21:02.722Z,45.10
2024-04-23T10:26:08.518Z,43.80
2024-04-23T10:31:12.783Z,44.80
2024-04-23T10:36:20.804Z,44.40
2024-04-23T10:41:28.941Z,45.30
2024-04-23T10:46:33.348Z,46.90
2024-04-23T10:51:46.002Z,48.80
2024-04-23T10:56:57.833Z,49.30
2024-04-23T11:02:07.237Z,45.50
2024-04-23T11:07:24.329Z,46.70
2024-04-23T11:12:32.758Z,46.80
2024-04-23T11:17:41.793Z,46.40
2024-04-23T11:22:54.844Z,44.40
2024-04-23T11:27:59.796Z,44.20
2024-04-23T11:33:05.316Z,44.20
2024-04-23T11:38:12.099Z,44.50
2024-04-23T11:43:19.267Z,43.50
2024-04-23T11:48:23.201Z,45.10
2024-04-23T11:53:30.178Z,48.90
2024-04-23T11:58:38.858Z,45.00
2024-04-23T12:03:42.814Z,50.60
2024-04-23T12:08:51.250Z,52.70
2024-04-23T12:13:55.814Z,53.20
2024-04-23T12:19:00.454Z,55.40
2024-04-23T12:24:07.423Z,54.70
2024-04-23T12:29:14.832Z,52.90
2024-04-23T12:34:19.579Z,56.60
2024-04-23T12:39:27.338Z,55.80
2024-04-23T12:44:31.109Z,54.80
2024-04-23T12:49:36.804Z,54.00
2024-04-23T12:54:45.991Z,49.20
2024-04-23T12:59:51.195Z,50.30
2024-04-23T13:04:59.574Z,53.00
2024-04-23T13:10:07.998Z,54.50
2024-04-23T13:15:13.593Z,55.40
2024-04-23T13:20:18.325Z,56.00
2024-04-23T13:25:25.114Z,58.00
2024-04-23T13:30:29.015Z,58.00
2024-04-23T13:35:34.134Z,55.70
2024-04-23T13:40:40.656Z,58.30
2024-04-23T13:45:44.563Z,55.70
2024-04-23T13:50:49.854Z,54.30
2024-04-23T13:55:56.173Z,57.90
2024-04-23T14:01:06.594Z,57.50
2024-04-23T14:06:10.513Z,58.30
2024-04-23T14:11:17.237Z,54.60
2024-04-23T14:16:21.332Z,56.50
2024-04-23T14:21:26.487Z,56.50
2024-04-23T14:26:34.141Z,56.30
2024-04-23T14:31:41.486Z,55.30
2024-04-23T14:36:45.443Z,56.00
2024-04-23T14:41:52.926Z,58.60
2024-04-23T14:46:57.990Z,58.10
2024-04-23T14:52:02.300Z,57.90
2024-04-23T14:57:09.987Z,57.40
2024-04-23T15:02:16.870Z,58.50
2024-04-23T15:07:20.993Z,59.30
2024-04-23T15:12:28.806Z,62.00
2024-04-23T15:17:35.150Z,59.10
2024-04-23T15:22:39.194Z,55.10
2024-04-23T15:27:45.658Z,56.10
2024-04-23T15:32:53.006Z,58.50
2024-04-23T15:38:02.258Z,55.80
2024-04-23T15:43:11.680Z,59.00
2024-04-23T15:48:15.621Z,58.30
2024-04-23T15:53:20.233Z,58.40
2024-04-23T15:58:26.854Z,59.30
2024-04-23T16:03:35.605Z,59.50
2024-04-23T16:08:40.033Z,60.30
2024-04-23T16:13:46.794Z,62.20
2024-04-23T16:18:50.939Z,63.80
2024-04-23T16:23:59.041Z,60.80
2024-04-23T16:29:07.680Z,62.10
2024-04-23T16:34:11.725Z,60.50
2024-04-23T16:39:18.869Z,62.40
2024-04-23T16:44:26.615Z,64.30
2024-04-23T16:49:30.417Z,65.10
2024-04-23T16:54:34.264Z,63.70
2024-04-23T16:59:40.799Z,65.90
2024-04-23T17:04:47.978Z,66.10
2024-04-23T17:09:52.289Z,66.30
2024-04-23T17:15:00.038Z,68.40
2024-04-23T17:20:05.620Z,68.90
2024-04-23T17:25:10.454Z,67.90
2024-04-23T17:30:17.544Z,68.80
2024-04-23T17:35:21.476Z,67.20
2024-04-23T17:40:28.549Z,71.20
2024-04-23T17:45:38.534Z,72.70
2024-04-23T17:50:43.909Z,73.90
2024-04-23T17:55:47.935Z,75.60
2024-04-23T18:00:54.726Z,76.60
2024-04-23T18:06:03.921Z,75.90
2024-04-23T18:11:12.750Z,80.20
2024-04-23T18:16:20.007Z,81.90
2024-04-23T18:21:24.043Z,82.90
2024-04-23T18:26:27.985Z,87.10
2024-04-23T18:31:34.806Z,88.70
2024-04-23T18:36:38.848Z,89.70
2024-04-23T18:41:44.147Z,89.60
2024-04-23T18:46:50.715Z,90.20
2024-04-23T18:51:54.830Z,90.30
2024-04-23T18:56:59.044Z,90.40
2024-04-23T19:02:08.671Z,91.30
2024-04-23T19:07:15.981Z,92.80
2024-04-23T19:12:20.340Z,93.40
2024-04-23T19:17:29.103Z,93.70
2024-04-23T19:22:36.832Z,94.30
2024-04-23T19:27:40.638Z,94.50
2024-04-23T19:32:48.286Z,94.00
2024-04-23T19:37:52.226Z,95.20
2024-04-23T19:43:01.815Z,96.90
2024-04-23T19:48:14.492Z,96.90
2024-04-23T19:53:20.117Z,98.00
2024-04-23T19:58:44.863Z,99.90
2024-04-23T20:03:53.016Z,99.90
2024-04-23T20:08:57.578Z,99.90
2024-04-23T20:14:01.959Z,99.90
2024-04-23T20:19:11.286Z,99.90
2024-04-23T20:24:15.244Z,99.90
2024-04-23T20:29:19.559Z,99.90
2024-04-23T20:34:27.431Z,99.90
2024-04-23T20:39:33.930Z,99.90
2024-04-23T20:44:49.075Z,99.90
2024-04-23T20:49:55.340Z,99.90
2024-04-23T20:54:59.468Z,99.90
2024-04-23T21:00:09.430Z,99.90
2024-04-23T21:05:18.486Z,99.90
2024-04-23T21:10:23.767Z,99.90
2024-04-23T21:15:28.181Z,99.90
2024-04-23T21:20:35.363Z,99.90
2024-04-23T21:25:39.596Z,99.90
2024-04-23T21:30:43.474Z,99.90
2024-04-23T21:35:50.292Z,99.90
2024-04-23T21:41:04.434Z,99.90
2024-04-23T21:46:10.904Z,99.90
2024-04-23T21:51:20.254Z,99.90
2024-04-23T21:56:24.178Z,99.90
2024-04-23T22:01:28.538Z,99.90
2024-04-23T22:06:39.687Z,99.90
2024-04-23T22:11:43.822Z,99.90
2024-04-23T22:16:48.217Z,99.90
2024-04-23T22:21:55.226Z,99.90
2024-04-23T22:26:59.283Z,99.90
2024-04-23T22:32:03.104Z,99.90
2024-04-23T22:37:10.033Z,99.90
2024-04-23T22:42:14.132Z,99.90
2024-04-23T22:47:23.932Z,99.90
2024-04-23T22:52:30.944Z,99.90
2024-04-23T22:57:35.059Z,99.90
2024-04-23T23:02:39.404Z,99.90
2024-04-23T23:07:46.053Z,99.90
2024-04-23T23:12:49.961Z,99.90
2024-04-23T23:17:54.298Z,99.90
2024-04-23T23:23:01.209Z,99.90
2024-04-23T23:28:09.325Z,99.90
2024-04-23T23:33:13.660Z,99.90
2024-04-23T23:38:21.762Z,99.90
2024-04-23T23:43:25.528Z,99.90
2024-04-23T23:48:30.800Z,99.90
2024-04-23T23:53:37.282Z,99.90
2024-04-23T23:58:41.176Z,99.90
